sensor_id;sensor_type;location;lat;lon;timestamp;P1;durP1;ratioP1;P2;durP2;ratioP2
54408;SDS011;40315;48.620;9.828;2022-08-03T00:01:03;5.25;;;3.10;;
54408;SDS011;40315;48.620;9.828;2022-08-03T00:03:30;4.82;;;3.53;;
54408;SDS011;40315;48.620;9.828;2022-08-03T00:05:57;5.35;;;3.50;;
54408;SDS011;40315;48.620;9.828;2022-08-03T00:08:26;3.60;;;3.30;;
54408;SDS011;40315;48.620;9.828;2022-08-03T00:10:53;4.00;;;3.15;;
54408;SDS011;40315;48.620;9.828;2022-08-03T00:13:20;3.80;;;3.45;;
54408;SDS011;40315;48.620;9.828;2022-08-03T00:15:47;3.60;;;3.30;;
54408;SDS011;40315;48.620;9.828;2022-08-03T00:18:14;6.03;;;3.53;;
54408;SDS011;40315;48.620;9.828;2022-08-03T00:20:41;6.15;;;3.28;;
54408;SDS011;40315;48.620;9.828;2022-08-03T00:23:09;5.38;;;3.60;;
54408;SDS011;40315;48.620;9.828;2022-08-03T00:25:37;3.67;;;3.30;;
54408;SDS011;40315;48.620;9.828;2022-08-03T00:28:04;3.58;;;3.28;;
54408;SDS011;40315;48.620;9.828;2022-08-03T00:30:32;4.00;;;3.20;;
54408;SDS011;40315;48.620;9.828;2022-08-03T00:32:59;5.72;;;3.30;;
54408;SDS011;40315;48.620;9.828;2022-08-03T00:35:27;3.97;;;3.40;;
54408;SDS011;40315;48.620;9.828;2022-08-03T00:37:54;5.60;;;3.50;;
54408;SDS011;40315;48.620;9.828;2022-08-03T00:40:22;4.05;;;3.38;;
54408;SDS011;40315;48.620;9.828;2022-08-03T00:42:51;3.38;;;3.08;;
54408;SDS011;40315;48.620;9.828;2022-08-03T00:45:19;4.47;;;3.92;;
54408;SDS011;40315;48.620;9.828;2022-08-03T00:47:48;3.80;;;3.38;;
54408;SDS011;40315;48.620;9.828;2022-08-03T00:50:15;5.13;;;3.58;;
54408;SDS011;40315;48.620;9.828;2022-08-03T00:52:45;3.50;;;3.20;;
54408;SDS011;40315;48.620;9.828;2022-08-03T00:55:13;3.75;;;3.28;;
54408;SDS011;40315;48.620;9.828;2022-08-03T00:57:43;3.85;;;3.45;;
54408;SDS011;40315;48.620;9.828;2022-08-03T01:00:14;3.60;;;3.30;;
54408;SDS011;40315;48.620;9.828;2022-08-03T01:02:42;5.63;;;3.50;;
54408;SDS011;40315;48.620;9.828;2022-08-03T01:05:10;3.88;;;3.38;;
54408;SDS011;40315;48.620;9.828;2022-08-03T01:07:41;5.43;;;3.38;;
54408;SDS011;40315;48.620;9.828;2022-08-03T01:10:21;3.63;;;3.25;;
54408;SDS011;40315;48.620;9.828;2022-08-03T01:12:58;3.85;;;3.47;;
54408;SDS011;40315;48.620;9.828;2022-08-03T01:15:35;3.70;;;3.35;;
54408;SDS011;40315;48.620;9.828;2022-08-03T01:18:16;3.78;;;3.42;;
54408;SDS011;40315;48.620;9.828;2022-08-03T01:20:48;3.55;;;3.25;;
54408;SDS011;40315;48.620;9.828;2022-08-03T01:26:23;4.20;;;3.80;;
54408;SDS011;40315;48.620;9.828;2022-08-03T01:29:07;6.07;;;3.50;;
54408;SDS011;40315;48.620;9.828;2022-08-03T01:31:55;3.90;;;3.47;;
54408;SDS011;40315;48.620;9.828;2022-08-03T01:34:28;3.72;;;3.42;;
54408;SDS011;40315;48.620;9.828;2022-08-03T01:36:59;3.65;;;3.35;;
54408;SDS011;40315;48.620;9.828;2022-08-03T20:46:28;2.33;;;1.58;;
54408;SDS011;40315;48.620;9.828;2022-08-03T20:48:57;5.93;;;1.45;;
54408;SDS011;40315;48.620;9.828;2022-08-03T20:51:28;6.65;;;1.55;;
54408;SDS011;40315;48.620;9.828;2022-08-03T20:53:55;5.85;;;1.83;;
54408;SDS011;40315;48.620;9.828;2022-08-03T20:56:25;6.32;;;1.90;;
54408;SDS011;40315;48.620;9.828;2022-08-03T20:58:57;3.67;;;2.08;;
54408;SDS011;40315;48.620;9.828;2022-08-03T21:01:25;5.88;;;2.00;;
54408;SDS011;40315;48.620;9.828;2022-08-03T21:03:53;5.22;;;1.85;;
54408;SDS011;40315;48.620;9.828;2022-08-03T21:06:23;4.10;;;1.80;;
54408;SDS011;40315;48.620;9.828;2022-08-03T21:08:57;3.08;;;1.70;;
54408;SDS011;40315;48.620;9.828;2022-08-03T21:11:29;4.20;;;1.85;;
54408;SDS011;40315;48.620;9.828;2022-08-03T21:14:05;9.25;;;2.00;;
54408;SDS011;40315;48.620;9.828;2022-08-03T21:16:38;3.28;;;1.90;;
54408;SDS011;40315;48.620;9.828;2022-08-03T21:19:11;2.92;;;1.75;;
54408;SDS011;40315;48.620;9.828;2022-08-03T21:21:39;3.97;;;1.80;;
54408;SDS011;40315;48.620;9.828;2022-08-03T21:24:08;4.53;;;2.42;;
54408;SDS011;40315;48.620;9.828;2022-08-03T21:26:38;5.22;;;2.03;;
54408;SDS011;40315;48.620;9.828;2022-08-03T21:29:06;4.68;;;1.92;;
54408;SDS011;40315;48.620;9.828;2022-08-03T21:31:36;2.08;;;1.88;;
54408;SDS011;40315;48.620;9.828;2022-08-03T21:34:05;4.13;;;2.60;;
54408;SDS011;40315;48.620;9.828;2022-08-03T21:36:35;5.20;;;1.67;;
54408;SDS011;40315;48.620;9.828;2022-08-03T21:39:03;3.47;;;2.00;;
54408;SDS011;40315;48.620;9.828;2022-08-03T21:41:33;3.55;;;2.00;;
54408;SDS011;40315;48.620;9.828;2022-08-03T21:44:02;3.45;;;2.00;;
54408;SDS011;40315;48.620;9.828;2022-08-03T21:46:32;5.60;;;2.20;;
54408;SDS011;40315;48.620;9.828;2022-08-03T21:49:02;3.60;;;1.88;;
54408;SDS011;40315;48.620;9.828;2022-08-03T21:51:34;3.25;;;2.00;;
54408;SDS011;40315;48.620;9.828;2022-08-03T21:54:04;6.05;;;2.00;;
54408;SDS011;40315;48.620;9.828;2022-08-03T21:56:34;4.80;;;2.08;;
54408;SDS011;40315;48.620;9.828;2022-08-03T21:59:08;4.03;;;1.88;;
54408;SDS011;40315;48.620;9.828;2022-08-03T22:01:41;7.78;;;1.88;;
54408;SDS011;40315;48.620;9.828;2022-08-03T22:04:10;5.40;;;1.60;;
54408;SDS011;40315;48.620;9.828;2022-08-03T22:06:45;3.63;;;1.70;;
54408;SDS011;40315;48.620;9.828;2022-08-03T22:09:12;1.90;;;1.70;;
54408;SDS011;40315;48.620;9.828;2022-08-03T22:11:39;2.15;;;1.80;;
54408;SDS011;40315;48.620;9.828;2022-08-03T22:14:06;3.42;;;1.48;;
54408;SDS011;40315;48.620;9.828;2022-08-03T22:16:36;6.60;;;1.70;;
54408;SDS011;40315;48.620;9.828;2022-08-03T22:19:07;4.97;;;1.60;;
54408;SDS011;40315;48.620;9.828;2022-08-03T22:21:34;5.32;;;1.90;;
54408;SDS011;40315;48.620;9.828;2022-08-03T22:24:04;8.18;;;1.80;;
54408;SDS011;40315;48.620;9.828;2022-08-03T22:26:32;3.40;;;1.73;;
54408;SDS011;40315;48.620;9.828;2022-08-03T22:29:05;4.55;;;1.80;;
54408;SDS011;40315;48.620;9.828;2022-08-03T22:31:33;1.98;;;1.38;;
54408;SDS011;40315;48.620;9.828;2022-08-03T22:34:03;4.60;;;1.70;;
54408;SDS011;40315;48.620;9.828;2022-08-03T22:36:33;4.05;;;1.40;;
54408;SDS011;40315;48.620;9.828;2022-08-03T22:39:00;2.55;;;1.75;;
54408;SDS011;40315;48.620;9.828;2022-08-03T22:41:28;3.17;;;1.73;;
54408;SDS011;40315;48.620;9.828;2022-08-03T22:43:58;4.07;;;2.10;;
54408;SDS011;40315;48.620;9.828;2022-08-03T22:46:26;3.30;;;1.80;;
54408;SDS011;40315;48.620;9.828;2022-08-03T22:48:54;5.97;;;1.60;;
54408;SDS011;40315;48.620;9.828;2022-08-03T22:51:21;5.25;;;1.80;;
54408;SDS011;40315;48.620;9.828;2022-08-03T22:53:48;2.20;;;1.50;;
54408;SDS011;40315;48.620;9.828;2022-08-03T22:56:16;7.20;;;2.20;;
54408;SDS011;40315;48.620;9.828;2022-08-03T22:58:46;2.58;;;1.73;;
54408;SDS011;40315;48.620;9.828;2022-08-03T23:01:13;3.08;;;1.90;;
54408;SDS011;40315;48.620;9.828;2022-08-03T23:03:46;2.65;;;1.88;;
54408;SDS011;40315;48.620;9.828;2022-08-03T23:06:18;3.08;;;1.98;;
54408;SDS011;40315;48.620;9.828;2022-08-03T23:08:46;3.70;;;2.00;;
54408;SDS011;40315;48.620;9.828;2022-08-03T23:11:16;2.20;;;2.00;;
54408;SDS011;40315;48.620;9.828;2022-08-03T23:13:44;4.13;;;2.00;;
54408;SDS011;40315;48.620;9.828;2022-08-03T23:16:17;3.25;;;1.90;;
54408;SDS011;40315;48.620;9.828;2022-08-03T23:18:46;6.75;;;2.40;;
54408;SDS011;40315;48.620;9.828;2022-08-03T23:21:15;3.97;;;2.30;;
54408;SDS011;40315;48.620;9.828;2022-08-03T23:23:44;6.97;;;2.08;;
54408;SDS011;40315;48.620;9.828;2022-08-03T23:26:12;2.67;;;2.13;;
54408;SDS011;40315;48.620;9.828;2022-08-03T23:28:40;4.35;;;2.38;;
54408;SDS011;40315;48.620;9.828;2022-08-03T23:31:13;5.10;;;1.95;;
54408;SDS011;40315;48.620;9.828;2022-08-03T23:33:43;6.43;;;2.10;;
54408;SDS011;40315;48.620;9.828;2022-08-03T23:36:11;4.22;;;1.80;;
54408;SDS011;40315;48.620;9.828;2022-08-03T23:38:42;3.55;;;1.92;;
54408;SDS011;40315;48.620;9.828;2022-08-03T23:41:12;5.07;;;2.20;;
54408;SDS011;40315;48.620;9.828;2022-08-03T23:43:40;4.15;;;1.90;;
54408;SDS011;40315;48.620;9.828;2022-08-03T23:46:09;4.95;;;2.05;;
54408;SDS011;40315;48.620;9.828;2022-08-03T23:48:42;3.88;;;1.95;;
54408;SDS011;40315;48.620;9.828;2022-08-03T23:51:09;4.07;;;2.00;;
54408;SDS011;40315;48.620;9.828;2022-08-03T23:53:46;4.63;;;1.80;;
54408;SDS011;40315;48.620;9.828;2022-08-03T23:56:26;3.80;;;2.20;;
54408;SDS011;40315;48.620;9.828;2022-08-03T23:58:59;4.20;;;1.92;;
